Time;durP1;ratioP1;P1;durP2;ratioP2;P2;SDS_P1;SDS_P2;PMS_P1;PMS_P2;Temp;Humidity;BMP_temperature;BMP_pressure;BME280_temperature;BME280_humidity;BME280_pressure;Samples;Min_cycle;Max_cycle;Signal;HPM_P1;HPM_P2
2022/04/23 00:01:53;;;;;;;14.53;6.70;;;;;;;7.61;100.00;100486.94;31335943;28;20504;-70
2022/04/23 00:16:57;;;;;;;9.43;6.03;;;;;;;7.34;100.00;100481.19;31341096;28;20063;-70
2022/04/23 00:31:59;;;;;;;11.93;6.80;;;;;;;7.17;100.00;100493.53;31356630;28;20071;-69
2022/04/23 00:47:01;;;;;;;10.23;6.30;;;;;;;7.06;100.00;100447.66;31345179;28;20057;-71
2022/04/23 01:02:04;;;;;;;10.40;5.70;;;;;;;6.80;100.00;100456.13;31346938;28;20041;-70
2022/04/23 01:17:06;;;;;;;13.80;6.73;;;;;;;6.60;100.00;100420.63;31359388;28;20140;-70
2022/04/23 01:32:08;;;;;;;14.57;7.73;;;;;;;6.58;100.00;100417.53;31348410;28;20037;-70
2022/04/23 01:47:10;;;;;;;13.17;5.57;;;;;;;6.48;100.00;100419.06;31346518;28;20060;-70
2022/04/23 02:02:12;;;;;;;11.07;6.77;;;;;;;6.30;100.00;100409.38;31343014;28;20060;-70
2022/04/23 02:17:14;;;;;;;14.13;8.23;;;;;;;5.88;100.00;100383.03;31335775;28;20053;-71
2022/04/23 02:32:16;;;;;;;12.97;6.50;;;;;;;5.55;100.00;100390.19;31340673;28;20045;-70
2022/04/23 02:47:18;;;;;;;15.20;7.53;;;;;;;5.77;100.00;100405.31;31309472;28;20063;-70
2022/04/23 03:02:20;;;;;;;12.53;6.50;;;;;;;5.88;100.00;100404.59;31339283;28;20041;-71
2022/04/23 03:17:23;;;;;;;11.40;6.33;;;;;;;6.04;100.00;100388.91;31319684;28;20094;-70
2022/04/23 03:32:25;;;;;;;11.60;6.93;;;;;;;5.83;100.00;100381.47;31341527;28;20053;-70
2022/04/23 03:47:28;;;;;;;13.07;6.57;;;;;;;6.17;100.00;100365.81;31334268;28;20072;-70
2022/04/23 04:02:29;;;;;;;9.53;6.00;;;;;;;6.49;100.00;100409.81;31356092;28;20053;-69
2022/04/23 04:17:32;;;;;;;10.70;5.67;;;;;;;7.02;100.00;100392.13;31360319;28;20041;-70
2022/04/23 04:32:35;;;;;;;10.27;6.40;;;;;;;7.09;100.00;100402.88;31352942;28;20045;-70
2022/04/23 04:47:37;;;;;;;15.07;6.57;;;;;;;7.09;100.00;100386.69;31354017;28;20049;-70
2022/04/23 05:02:39;;;;;;;10.40;5.70;;;;;;;7.41;100.00;100413.66;31355370;28;20060;-70
2022/04/23 05:17:41;;;;;;;10.93;5.07;;;;;;;7.81;100.00;100442.88;31330356;28;20469;-71
2022/04/23 05:32:43;;;;;;;11.83;4.97;;;;;;;8.32;100.00;100409.09;31355177;28;20049;-71
2022/04/23 05:47:45;;;;;;;9.43;4.90;;;;;;;8.41;100.00;100404.03;31352516;28;20053;-70
2022/04/23 06:02:47;;;;;;;8.57;4.67;;;;;;;8.65;100.00;100385.31;31374982;28;20051;-72
2022/04/23 06:17:50;;;;;;;9.10;5.20;;;;;;;8.93;100.00;100393.22;31316229;28;20085;-71
2022/04/23 06:32:52;;;;;;;6.50;4.10;;;;;;;9.26;100.00;100409.94;31339023;28;20049;-71
2022/04/23 06:48:04;;;;;;;6.80;3.87;;;;;;;9.66;100.00;100425.44;31350751;28;20056;-80
2022/04/23 07:03:06;;;;;;;4.83;3.43;;;;;;;10.06;98.94;100409.47;31362462;28;20053;-81
2022/04/23 07:18:08;;;;;;;5.53;3.43;;;;;;;10.56;93.94;100377.78;31372644;28;20053;-80
2022/04/23 07:37:28;;;;;;;4.07;3.03;;;;;;;11.01;86.81;100369.28;31361168;28;20044;-79
2022/04/23 07:48:33;;;;;;;4.97;2.83;;;;;;;11.59;82.41;100337.91;31396997;28;20374;-81
2022/04/23 08:03:35;;;;;;;8.63;3.20;;;;;;;12.26;76.18;100324.09;31387347;28;20053;-81
2022/04/23 08:19:14;;;;;;;4.53;3.00;;;;;;;12.41;72.59;100305.47;31373852;28;20515;-80
2022/04/23 08:34:16;;;;;;;5.13;3.57;;;;;;;12.13;69.30;100298.72;31490594;28;20049;-80
2022/04/23 08:49:18;;;;;;;3.80;2.97;;;;;;;12.23;68.65;100303.16;31455842;28;20113;-80
2022/04/23 09:04:20;;;;;;;5.53;3.57;;;;;;;12.21;65.63;100284.53;31435022;28;20048;-81
2022/04/23 09:34:42;;;;;;;4.27;3.03;;;;;;;11.68;71.84;100225.84;31384788;28;20048;-80
2022/04/23 09:49:54;;;;;;;6.17;3.00;;;;;;;12.01;67.68;100193.28;31357923;28;352050;-81
2022/04/23 10:04:58;;;;;;;9.57;3.63;;;;;;;12.97;66.99;100207.91;31358893;28;20174;-81
2022/04/23 10:20:01;;;;;;;4.77;3.20;;;;;;;13.22;66.94;100197.09;31369779;28;20047;-80
2022/04/23 10:35:24;;;;;;;11.07;3.80;;;;;;;13.00;67.95;100212.47;31384462;28;20056;-81
2022/04/23 10:50:28;;;;;;;7.33;3.30;;;;;;;12.83;63.10;100214.50;31371570;28;20478;-81
2022/04/23 11:20:54;;;;;;;5.27;2.77;;;;;;;12.76;63.53;100181.22;31353331;28;20057;-81
2022/04/23 11:35:57;;;;;;;3.60;2.50;;;;;;;12.76;64.52;100175.78;31389036;28;20047;-81
2022/04/23 11:51:06;;;;;;;4.50;2.97;;;;;;;12.74;64.64;100156.41;31387985;28;20056;-81
2022/04/23 12:06:09;;;;;;;4.70;2.60;;;;;;;12.69;65.18;100126.97;31370465;28;20060;-81
2022/04/23 12:21:11;;;;;;;6.80;2.90;;;;;;;12.78;65.37;100091.66;31398715;28;20051;-81
2022/04/23 12:51:50;;;;;;;3.63;2.60;;;;;;;12.93;65.91;100054.66;31391551;28;20404;-80
2022/04/23 13:22:27;;;;;;;4.73;3.43;;;;;;;12.60;65.49;99991.44;31358661;28;20751;-81
2022/04/23 13:37:29;;;;;;;5.03;3.17;;;;;;;12.40;65.22;99985.41;31365443;28;20063;-79
2022/04/23 13:52:31;;;;;;;4.30;2.80;;;;;;;12.29;63.52;99996.59;31421430;28;20056;-80
2022/04/23 14:23:00;;;;;;;4.80;2.97;;;;;;;12.18;61.47;100062.22;31456443;28;20064;-83
2022/04/23 14:38:05;;;;;;;6.07;2.77;;;;;;;12.04;62.37;100018.31;31379323;28;20069;-83
2022/04/23 14:53:10;;;;;;;3.60;2.73;;;;;;;11.90;63.92;100041.97;31387405;28;20059;-80
2022/04/23 15:08:12;;;;;;;5.30;3.23;;;;;;;11.79;66.11;99997.97;31407130;28;20489;-80
2022/04/23 15:23:14;;;;;;;4.80;3.47;;;;;;;11.88;67.30;99981.03;31378817;28;20080;-81
2022/04/23 15:38:16;;;;;;;8.17;3.50;;;;;;;11.98;66.74;99927.53;31376287;28;20471;-83
2022/04/23 15:53:20;;;;;;;6.07;3.77;;;;;;;11.87;65.91;99928.56;31424952;28;20048;-82
2022/04/23 16:08:24;;;;;;;3.90;2.73;;;;;;;11.67;66.75;99914.34;31426246;28;20136;-81
2022/04/23 16:23:26;;;;;;;5.97;3.57;;;;;;;11.49;67.54;99935.81;31415368;28;20077;-82
2022/04/23 16:53:49;;;;;;;5.23;3.30;;;;;;;11.34;69.06;100002.59;31418228;28;20056;-79
2022/04/23 17:08:51;;;;;;;6.43;3.87;;;;;;;11.24;70.27;99980.69;31432873;28;20072;-82
2022/04/23 17:23:53;;;;;;;6.07;4.20;;;;;;;10.98;78.28;99911.06;31383088;28;20052;-81
2022/04/23 17:38:55;;;;;;;7.30;4.37;;;;;;;10.27;86.47;99863.09;31412436;28;20251;-81
2022/04/23 17:53:57;;;;;;;6.73;4.07;;;;;;;10.04;89.67;99794.22;31342697;28;20053;-79
2022/04/23 18:08:59;;;;;;;9.50;4.53;;;;;;;10.13;90.32;99771.94;31367663;28;20040;-79
2022/04/23 18:24:01;;;;;;;6.23;4.00;;;;;;;10.39;88.35;99800.06;31369674;28;20072;-78
2022/04/23 18:39:03;;;;;;;7.47;4.30;;;;;;;10.39;86.98;99787.25;31364062;28;20469;-79
2022/04/23 18:54:05;;;;;;;6.47;4.23;;;;;;;10.47;85.79;99815.72;31446109;28;20060;-80
2022/04/23 19:09:08;;;;;;;5.97;4.60;;;;;;;10.46;85.82;99768.06;31384167;28;20511;-82
2022/04/23 19:39:31;;;;;;;6.50;4.40;;;;;;;10.52;86.45;99746.59;31363428;28;20064;-79
2022/04/23 19:54:34;;;;;;;7.03;4.90;;;;;;;10.13;93.23;99725.84;31250107;28;20056;-80
2022/04/23 20:09:37;;;;;;;6.67;4.23;;;;;;;10.29;94.64;99727.81;31256788;28;20092;-79
2022/04/23 20:24:39;;;;;;;7.93;4.27;;;;;;;10.43;94.42;99768.91;31246086;28;20061;-79
2022/04/23 20:39:42;;;;;;;7.73;5.07;;;;;;;10.50;95.63;99795.88;31251971;28;20046;-79
2022/04/23 20:54:44;;;;;;;9.20;4.97;;;;;;;10.65;94.82;99818.00;31381303;28;20059;-79
2022/04/23 21:09:49;;;;;;;8.37;5.00;;;;;;;10.76;94.21;99853.03;31385147;28;20045;-79
2022/04/23 21:24:51;;;;;;;11.20;5.30;;;;;;;10.74;94.27;99890.72;31366254;28;20060;-79
2022/04/23 21:39:54;;;;;;;9.67;5.97;;;;;;;10.64;95.27;99861.84;31326403;28;20057;-78
2022/04/23 21:54:56;;;;;;;8.93;6.23;;;;;;;10.28;100.00;99897.94;31356780;28;20049;-79
2022/04/23 22:09:58;;;;;;;12.30;7.40;;;;;;;9.94;100.00;99887.38;31364934;28;20044;-77
2022/04/23 22:25:00;;;;;;;18.40;7.87;;;;;;;9.76;100.00;99868.78;31358225;28;20052;-78
2022/04/23 22:40:03;;;;;;;13.13;7.17;;;;;;;9.61;100.00;99842.38;31332357;28;20052;-76
2022/04/23 22:55:05;;;;;;;15.13;7.73;;;;;;;9.21;100.00;99745.59;31357829;28;20076;-77
2022/04/23 23:10:09;;;;;;;15.93;8.00;;;;;;;8.91;100.00;99731.53;31330383;28;20400;-77
2022/04/23 23:25:11;;;;;;;13.57;8.00;;;;;;;9.09;100.00;99692.09;31342852;28;20714;-78
2022/04/23 23:40:13;;;;;;;11.60;7.03;;;;;;;9.29;100.00;99715.69;31355660;28;20090;-78
2022/04/23 23:55:14;;;;;;;11.73;7.53;;;;;;;9.53;100.00;99701.63;31347135;28;20675;-78
